createdAt,value
2018-08-25T00:01:33.669Z,12.90
2018-08-25T00:04:01.212Z,12.90
2018-08-25T00:06:28.775Z,12.80
2018-08-25T00:08:56.309Z,12.80
2018-08-25T00:11:24.629Z,12.80
2018-08-25T00:13:52.186Z,12.80
2018-08-25T00:16:19.722Z,12.90
2018-08-25T00:18:47.284Z,12.90
2018-08-25T00:21:14.814Z,12.80
2018-08-25T00:23:42.356Z,12.80
2018-08-25T00:26:09.908Z,12.80
2018-08-25T00:28:37.433Z,12.70
2018-08-25T00:31:05.002Z,12.70
2018-08-25T00:33:32.545Z,12.70
2018-08-25T00:36:00.107Z,12.60
2018-08-25T00:38:27.667Z,12.60
2018-08-25T00:40:55.199Z,12.60
2018-08-25T00:43:23.713Z,12.70
2018-08-25T00:45:51.274Z,12.80
2018-08-25T00:48:18.800Z,12.90
2018-08-25T00:50:48.288Z,12.90
2018-08-25T00:53:15.817Z,12.80
2018-08-25T00:55:43.379Z,12.80
2018-08-25T00:58:13.640Z,12.60
2018-08-25T01:00:41.179Z,12.60
2018-08-25T01:03:08.708Z,12.50
2018-08-25T01:05:36.269Z,12.70
2018-08-25T01:08:05.529Z,12.80
2018-08-25T01:10:33.090Z,12.70
2018-08-25T01:13:00.621Z,12.70
2018-08-25T01:15:28.175Z,12.70
2018-08-25T01:17:55.740Z,12.60
2018-08-25T01:20:24.157Z,12.60
2018-08-25T01:22:51.688Z,12.60
2018-08-25T01:25:19.253Z,12.50
2018-08-25T01:27:46.788Z,12.60
2018-08-25T01:30:14.348Z,12.70
2018-08-25T01:32:41.901Z,12.70
2018-08-25T01:35:09.438Z,12.80
2018-08-25T01:37:36.993Z,12.70
2018-08-25T01:40:04.516Z,12.60
2018-08-25T01:42:32.049Z,12.60
2018-08-25T01:44:59.609Z,12.80
2018-08-25T01:47:27.177Z,12.80
2018-08-25T01:49:54.733Z,12.90
2018-08-25T01:52:22.272Z,12.80
2018-08-25T01:54:49.802Z,12.80
2018-08-25T01:57:17.366Z,12.90
2018-08-25T01:59:44.904Z,12.90
2018-08-25T02:02:12.464Z,12.90
2018-08-25T02:04:40.034Z,12.90
2018-08-25T02:07:07.575Z,12.90
2018-08-25T02:09:35.125Z,13.00
2018-08-25T02:12:02.657Z,12.90
2018-08-25T02:14:30.249Z,12.80
2018-08-25T02:16:58.755Z,12.80
2018-08-25T02:19:26.304Z,12.80
2018-08-25T02:21:53.869Z,12.70
2018-08-25T02:24:21.485Z,12.70
2018-08-25T02:26:49.033Z,12.70
2018-08-25T02:29:17.362Z,12.50
2018-08-25T02:31:44.903Z,12.50
2018-08-25T02:34:12.473Z,12.60
2018-08-25T02:36:40.009Z,12.70
2018-08-25T02:39:07.584Z,12.70
2018-08-25T02:41:35.150Z,12.80
2018-08-25T02:44:02.713Z,12.80
2018-08-25T02:46:30.261Z,12.90
2018-08-25T02:48:57.794Z,12.80
2018-08-25T02:51:26.297Z,12.80
2018-08-25T02:53:53.825Z,12.80
2018-08-25T02:56:21.386Z,12.70
2018-08-25T02:58:48.937Z,12.80
2018-08-25T03:01:16.472Z,12.80
2018-08-25T03:03:44.235Z,12.70
2018-08-25T03:06:12.565Z,12.70
2018-08-25T03:08:40.126Z,12.70
2018-08-25T03:11:07.661Z,12.70
2018-08-25T03:13:35.248Z,12.70
2018-08-25T03:16:02.796Z,12.70
2018-08-25T03:18:30.361Z,12.60
2018-08-25T03:20:57.907Z,12.50
2018-08-25T03:23:26.401Z,12.50
2018-08-25T03:25:53.973Z,12.60
2018-08-25T03:28:21.500Z,12.60
2018-08-25T03:30:49.068Z,12.60
2018-08-25T03:33:16.629Z,12.70
2018-08-25T03:35:45.129Z,12.60
2018-08-25T03:38:12.657Z,12.70
2018-08-25T03:40:40.236Z,12.70
2018-08-25T03:43:07.769Z,12.70
2018-08-25T03:45:35.321Z,12.60
2018-08-25T03:48:02.934Z,12.50
2018-08-25T03:50:30.505Z,12.60
2018-08-25T03:52:58.035Z,12.60
2018-08-25T03:55:25.628Z,12.70
2018-08-25T03:57:53.158Z,12.70
2018-08-25T04:00:21.462Z,12.80
2018-08-25T04:02:49.023Z,12.70
2018-08-25T04:05:16.561Z,12.80
2018-08-25T04:07:44.120Z,12.80
2018-08-25T04:10:11.666Z,12.80
2018-08-25T04:12:39.988Z,12.90
2018-08-25T04:15:07.545Z,12.90
2018-08-25T04:17:35.100Z,12.90
2018-08-25T04:20:03.610Z,12.90
2018-08-25T04:22:31.175Z,12.80
2018-08-25T04:24:58.705Z,12.90
2018-08-25T04:27:26.276Z,12.90
2018-08-25T04:29:53.837Z,12.90
2018-08-25T04:32:21.397Z,12.80
2018-08-25T04:34:48.958Z,12.90
2018-08-25T04:37:16.494Z,12.80
2018-08-25T04:39:44.055Z,12.80
2018-08-25T04:42:11.596Z,12.80
2018-08-25T04:44:39.157Z,12.80
2018-08-25T04:47:06.701Z,12.80
2018-08-25T04:49:34.269Z,12.80
2018-08-25T04:52:01.797Z,12.70
2018-08-25T04:54:29.359Z,12.80
2018-08-25T04:56:56.925Z,12.80
2018-08-25T04:59:24.489Z,12.80
2018-08-25T05:01:52.050Z,12.80
2018-08-25T05:04:19.617Z,12.80
2018-08-25T05:06:47.181Z,12.80
2018-08-25T05:09:15.701Z,12.70
2018-08-25T05:11:43.241Z,12.80
2018-08-25T05:14:10.778Z,12.90
2018-08-25T05:16:38.342Z,13.00
2018-08-25T05:19:05.881Z,13.00
2018-08-25T05:21:33.449Z,13.10
2018-08-25T05:24:01.009Z,13.20
2018-08-25T05:26:28.545Z,13.20
2018-08-25T05:28:56.110Z,13.20
2018-08-25T05:31:23.671Z,13.20
2018-08-25T05:33:52.146Z,13.10
2018-08-25T05:36:19.725Z,13.20
2018-08-25T05:38:47.261Z,13.20
2018-08-25T05:41:14.799Z,13.30
2018-08-25T05:43:42.361Z,13.50
2018-08-25T05:46:09.921Z,13.50
2018-08-25T05:48:37.496Z,13.60
2018-08-25T05:51:05.031Z,13.60
2018-08-25T05:53:32.593Z,13.70
2018-08-25T05:56:00.142Z,13.80
2018-08-25T05:58:27.707Z,13.70
2018-08-25T06:00:55.246Z,13.80
2018-08-25T06:03:22.805Z,13.80
2018-08-25T06:05:50.342Z,13.80
2018-08-25T06:08:18.671Z,13.90
2018-08-25T06:10:46.209Z,13.90
2018-08-25T06:13:13.769Z,14.00
2018-08-25T06:15:41.309Z,14.00
2018-08-25T06:18:08.841Z,14.10
2018-08-25T06:20:38.165Z,14.20
2018-08-25T06:23:05.698Z,14.10
2018-08-25T06:25:33.263Z,14.30
2018-08-25T06:28:00.825Z,14.40
2018-08-25T06:30:28.358Z,14.50
2018-08-25T06:32:55.902Z,14.50
2018-08-25T06:35:23.456Z,14.50
2018-08-25T06:37:50.987Z,14.50
2018-08-25T06:40:18.548Z,14.50
2018-08-25T06:42:46.106Z,14.50
2018-08-25T06:45:14.571Z,14.40
2018-08-25T06:47:42.137Z,14.60
2018-08-25T06:50:09.709Z,14.70
2018-08-25T06:52:37.254Z,14.80
2018-08-25T06:55:04.817Z,14.80
2018-08-25T06:57:32.388Z,14.90
2018-08-25T06:59:59.949Z,15.00
2018-08-25T07:02:27.485Z,15.10
2018-08-25T07:04:55.046Z,15.10
2018-08-25T07:07:22.613Z,15.20
2018-08-25T07:09:50.174Z,15.30
2018-08-25T07:12:17.705Z,15.30
2018-08-25T07:14:45.287Z,15.20
2018-08-25T07:17:12.829Z,15.20
2018-08-25T07:19:40.428Z,15.10
2018-08-25T07:22:07.945Z,15.20
2018-08-25T07:24:35.476Z,15.30
2018-08-25T07:27:03.043Z,15.50
2018-08-25T07:29:31.550Z,15.50
2018-08-25T07:31:59.116Z,15.60
2018-08-25T07:34:27.461Z,15.70
2018-08-25T07:36:54.988Z,15.70
2018-08-25T07:39:22.526Z,15.80
2018-08-25T07:41:50.855Z,15.70
2018-08-25T07:44:18.391Z,15.70
2018-08-25T07:46:45.957Z,15.70
2018-08-25T07:49:13.524Z,15.70
2018-08-25T07:51:41.062Z,15.70
2018-08-25T07:54:10.571Z,15.60
2018-08-25T07:56:38.135Z,15.50
2018-08-25T07:59:05.718Z,15.40
2018-08-25T08:01:33.248Z,15.40
2018-08-25T08:04:00.823Z,15.40
2018-08-25T08:06:28.358Z,15.30
2018-08-25T08:08:55.920Z,15.30
2018-08-25T08:11:23.455Z,15.20
2018-08-25T08:13:52.960Z,15.20
2018-08-25T08:16:20.493Z,15.10
2018-08-25T08:18:48.831Z,15.20
2018-08-25T08:21:16.369Z,15.20
2018-08-25T08:23:44.127Z,15.20
2018-08-25T08:26:13.633Z,15.10
2018-08-25T08:28:41.173Z,14.80
2018-08-25T08:31:08.745Z,14.80
2018-08-25T08:33:36.278Z,14.70
2018-08-25T08:36:04.807Z,14.60
2018-08-25T08:38:32.340Z,14.40
2018-08-25T08:40:59.913Z,14.40
2018-08-25T08:43:27.460Z,14.30
2018-08-25T08:45:56.001Z,14.20
2018-08-25T08:48:23.546Z,14.20
2018-08-25T08:50:52.836Z,14.10
2018-08-25T08:53:20.396Z,14.10
2018-08-25T08:55:47.945Z,14.10
2018-08-25T08:58:15.596Z,14.00
2018-08-25T09:00:43.103Z,14.00
2018-08-25T09:03:10.670Z,14.00
2018-08-25T09:05:39.177Z,14.00
2018-08-25T09:08:06.744Z,14.00
2018-08-25T09:10:35.297Z,14.00
2018-08-25T09:13:02.878Z,14.10
2018-08-25T09:15:30.430Z,14.10
2018-08-25T09:17:59.948Z,14.20
2018-08-25T09:20:28.467Z,14.20
2018-08-25T09:22:56.036Z,14.20
2018-08-25T09:25:23.609Z,14.20
2018-08-25T09:27:53.145Z,14.10
2018-08-25T09:30:20.723Z,14.00
2018-08-25T09:32:49.042Z,14.10
2018-08-25T09:35:16.610Z,14.10
2018-08-25T09:37:44.160Z,14.20
2018-08-25T09:40:11.742Z,14.10
2018-08-25T09:42:39.274Z,14.00
2018-08-25T09:45:07.725Z,13.80
2018-08-25T09:47:35.295Z,14.00
2018-08-25T09:50:02.860Z,13.90
2018-08-25T09:52:30.410Z,13.90
2018-08-25T09:54:57.946Z,13.80
2018-08-25T09:57:26.281Z,13.60
2018-08-25T09:59:53.830Z,13.60
2018-08-25T10:02:21.393Z,13.70
2018-08-25T10:04:48.932Z,13.70
2018-08-25T10:07:16.512Z,13.70
2018-08-25T10:09:45.028Z,13.80
2018-08-25T10:12:12.593Z,13.80
2018-08-25T10:14:40.891Z,14.10
2018-08-25T10:17:08.480Z,14.10
2018-08-25T10:19:36.015Z,14.20
2018-08-25T10:22:03.583Z,14.30
2018-08-25T10:24:31.174Z,14.40
2018-08-25T10:26:58.713Z,14.50
2018-08-25T10:29:26.285Z,14.50
2018-08-25T10:31:53.819Z,14.50
2018-08-25T10:34:21.380Z,14.50
2018-08-25T10:36:49.870Z,14.60
2018-08-25T10:39:17.435Z,14.40
2018-08-25T10:41:45.022Z,14.40
2018-08-25T10:44:13.505Z,14.40
2018-08-25T10:46:41.085Z,14.70
2018-08-25T10:49:08.639Z,14.70
2018-08-25T10:51:36.219Z,14.70
2018-08-25T10:54:03.795Z,14.80
2018-08-25T10:56:31.343Z,14.90
2018-08-25T10:58:58.877Z,14.90
2018-08-25T11:01:26.439Z,14.70
2018-08-25T11:03:53.979Z,14.80
2018-08-25T11:06:21.544Z,14.90
2018-08-25T11:08:49.160Z,14.70
2018-08-25T11:11:16.680Z,14.40
2018-08-25T11:13:44.239Z,14.20
2018-08-25T11:16:11.809Z,14.20
2018-08-25T11:18:39.368Z,14.40
2018-08-25T11:21:06.906Z,14.60
2018-08-25T11:23:34.519Z,14.60
2018-08-25T11:26:02.027Z,14.60
2018-08-25T11:28:31.548Z,14.50
2018-08-25T11:30:59.086Z,14.50
2018-08-25T11:33:26.661Z,14.80
2018-08-25T11:35:54.198Z,14.80
2018-08-25T11:38:21.752Z,14.80
2018-08-25T11:40:50.270Z,14.90
2018-08-25T11:43:18.614Z,15.00
2018-08-25T11:45:46.154Z,14.90
2018-08-25T11:48:13.709Z,15.00
2018-08-25T11:50:41.252Z,15.00
2018-08-25T11:53:08.781Z,15.10
2018-08-25T11:55:37.101Z,15.20
2018-08-25T11:58:05.593Z,15.20
2018-08-25T12:00:33.178Z,15.30
2018-08-25T12:03:03.831Z,15.40
2018-08-25T12:05:28.304Z,15.30
2018-08-25T12:07:56.612Z,15.10
2018-08-25T12:10:24.183Z,15.10
2018-08-25T12:12:51.749Z,15.00
2018-08-25T12:15:21.254Z,15.00
2018-08-25T12:17:48.794Z,15.00
2018-08-25T12:20:16.395Z,14.90
2018-08-25T12:22:43.973Z,15.00
2018-08-25T12:25:12.278Z,15.10
2018-08-25T12:27:39.846Z,15.10
2018-08-25T12:30:07.421Z,15.40
2018-08-25T12:32:34.986Z,15.40
2018-08-25T12:35:02.521Z,15.50
2018-08-25T12:37:30.090Z,15.60
2018-08-25T12:39:57.628Z,15.70
2018-08-25T12:42:25.195Z,16.10
2018-08-25T12:44:52.782Z,16.40
2018-08-25T12:47:20.322Z,16.30
2018-08-25T12:49:47.877Z,16.50
2018-08-25T12:52:15.418Z,16.40
2018-08-25T12:54:42.990Z,16.40
2018-08-25T12:57:10.536Z,16.30
2018-08-25T12:59:38.095Z,16.40
2018-08-25T13:02:05.634Z,16.60
2018-08-25T13:04:33.197Z,16.60
2018-08-25T13:07:00.729Z,16.60
2018-08-25T13:09:29.039Z,16.80
2018-08-25T13:11:56.604Z,16.80
2018-08-25T13:14:24.140Z,16.50
2018-08-25T13:16:51.696Z,16.50
2018-08-25T13:19:20.198Z,16.50
2018-08-25T13:21:47.777Z,16.60
2018-08-25T13:24:15.322Z,16.50
2018-08-25T13:26:42.882Z,16.40
2018-08-25T13:29:10.443Z,16.40
2018-08-25T13:31:38.007Z,16.20
2018-08-25T13:34:05.560Z,16.10
2018-08-25T13:36:33.093Z,16.00
2018-08-25T13:39:00.646Z,15.90
2018-08-25T13:41:29.147Z,15.80
2018-08-25T13:43:56.710Z,15.90
2018-08-25T13:46:24.247Z,16.00
2018-08-25T13:48:51.825Z,16.00
2018-08-25T13:51:19.360Z,16.00
2018-08-25T13:53:46.935Z,15.80
2018-08-25T13:56:15.449Z,15.80
2018-08-25T13:58:42.983Z,15.60
2018-08-25T14:01:11.519Z,15.40
2018-08-25T14:03:39.050Z,15.40
2018-08-25T14:06:06.617Z,15.50
2018-08-25T14:08:34.154Z,15.50
2018-08-25T14:11:02.481Z,15.50
2018-08-25T14:13:30.014Z,15.50
2018-08-25T14:15:57.616Z,15.50
2018-08-25T14:18:25.133Z,15.40
2018-08-25T14:20:52.694Z,15.50
2018-08-25T14:23:20.254Z,15.50
2018-08-25T14:25:47.787Z,15.50
2018-08-25T14:28:15.345Z,15.30
2018-08-25T14:30:43.649Z,15.40
2018-08-25T14:33:11.212Z,15.40
2018-08-25T14:35:38.746Z,15.20
2018-08-25T14:38:06.306Z,15.30
2018-08-25T14:40:33.837Z,15.30
2018-08-25T14:43:03.149Z,15.50
2018-08-25T14:45:30.681Z,15.50
2018-08-25T14:47:58.251Z,15.50
2018-08-25T14:50:25.781Z,15.40
2018-08-25T14:52:53.367Z,15.50
2018-08-25T14:55:21.003Z,15.70
2018-08-25T14:57:48.562Z,15.60
2018-08-25T15:00:16.103Z,15.70
2018-08-25T15:02:43.677Z,15.80
2018-08-25T15:05:11.243Z,15.60
2018-08-25T15:07:38.797Z,15.60
2018-08-25T15:10:06.618Z,15.60
2018-08-25T15:12:34.153Z,15.40
2018-08-25T15:15:01.710Z,15.00
2018-08-25T15:17:29.297Z,14.80
2018-08-25T15:19:56.868Z,14.60
2018-08-25T15:22:24.433Z,14.40
2018-08-25T15:24:53.965Z,14.10
2018-08-25T15:27:21.573Z,13.60
2018-08-25T15:29:49.118Z,13.40
2018-08-25T15:32:16.647Z,13.10
2018-08-25T15:34:44.250Z,13.10
2018-08-25T15:37:11.789Z,13.00
2018-08-25T15:39:39.553Z,13.10
2018-08-25T15:42:07.085Z,13.30
2018-08-25T15:44:34.646Z,13.20
2018-08-25T15:47:02.177Z,13.00
2018-08-25T15:49:30.505Z,13.10
2018-08-25T15:51:58.106Z,13.10
2018-08-25T15:54:25.634Z,13.30
2018-08-25T15:56:53.209Z,13.40
2018-08-25T15:59:20.739Z,13.40
2018-08-25T16:01:48.296Z,13.10
2018-08-25T16:04:15.830Z,13.10
2018-08-25T16:06:43.385Z,13.10
2018-08-25T16:09:10.921Z,13.10
2018-08-25T16:11:38.534Z,13.20
2018-08-25T16:14:06.054Z,13.40
2018-08-25T16:16:33.624Z,13.40
2018-08-25T16:19:01.179Z,13.60
2018-08-25T16:21:28.735Z,13.70
2018-08-25T16:23:56.292Z,13.80
2018-08-25T16:26:23.829Z,13.70
2018-08-25T16:28:51.471Z,13.70
2018-08-25T16:31:19.009Z,13.60
2018-08-25T16:33:46.573Z,13.60
2018-08-25T16:36:14.113Z,13.70
2018-08-25T16:38:41.677Z,13.70
2018-08-25T16:41:09.206Z,13.60
2018-08-25T16:43:36.769Z,13.60
2018-08-25T16:46:04.302Z,13.40
2018-08-25T16:48:32.846Z,13.50
2018-08-25T16:51:02.106Z,13.40
2018-08-25T16:53:29.665Z,13.40
2018-08-25T16:55:57.235Z,13.60
2018-08-25T16:58:24.824Z,13.60
2018-08-25T17:00:53.118Z,13.60
2018-08-25T17:03:20.687Z,13.60
2018-08-25T17:05:49.214Z,13.70
2018-08-25T17:08:17.765Z,13.60
2018-08-25T17:10:45.302Z,13.70
2018-08-25T17:13:12.839Z,13.80
2018-08-25T17:15:40.406Z,13.90
2018-08-25T17:18:07.942Z,14.00
2018-08-25T17:20:35.515Z,14.00
2018-08-25T17:23:03.095Z,13.90
2018-08-25T17:25:30.642Z,13.70
2018-08-25T17:27:58.209Z,13.60
2018-08-25T17:30:25.776Z,13.60
2018-08-25T17:32:53.313Z,13.60
2018-08-25T17:35:20.887Z,13.70
2018-08-25T17:37:48.449Z,13.70
2018-08-25T17:40:15.990Z,13.70
2018-08-25T17:42:43.546Z,13.70
2018-08-25T17:45:11.142Z,13.80
2018-08-25T17:47:38.693Z,13.80
2018-08-25T17:50:07.191Z,13.90
2018-08-25T17:52:34.762Z,13.90
2018-08-25T17:55:02.301Z,13.90
2018-08-25T17:57:30.025Z,13.90
2018-08-25T17:59:58.214Z,13.90
2018-08-25T18:02:25.750Z,13.90
2018-08-25T18:04:53.323Z,13.90
2018-08-25T18:07:20.888Z,13.90
2018-08-25T18:09:48.458Z,13.80
2018-08-25T18:12:15.998Z,13.70
2018-08-25T18:14:43.566Z,13.70
2018-08-25T18:17:12.033Z,13.70
2018-08-25T18:19:39.594Z,13.60
2018-08-25T18:22:07.160Z,13.70
2018-08-25T18:24:34.730Z,13.70
2018-08-25T18:27:02.277Z,13.60
2018-08-25T18:29:29.849Z,13.70
2018-08-25T18:31:57.441Z,13.70
2018-08-25T18:34:25.005Z,13.70
2018-08-25T18:36:53.578Z,13.80
2018-08-25T18:39:21.046Z,13.70
2018-08-25T18:41:48.615Z,13.70
2018-08-25T18:44:16.150Z,13.60
2018-08-25T18:46:44.689Z,13.40
2018-08-25T18:49:12.225Z,13.40
2018-08-25T18:51:39.758Z,13.30
2018-08-25T18:54:07.317Z,13.30
2018-08-25T18:56:34.882Z,13.20
2018-08-25T18:59:02.525Z,13.20
2018-08-25T19:01:30.035Z,13.20
2018-08-25T19:03:57.597Z,13.10
2018-08-25T19:06:25.125Z,13.20
2018-08-25T19:08:52.687Z,13.10
2018-08-25T19:11:20.226Z,13.00
2018-08-25T19:13:47.798Z,13.00
2018-08-25T19:16:16.292Z,13.00
2018-08-25T19:18:44.813Z,13.00
2018-08-25T19:21:12.349Z,12.90
2018-08-25T19:23:39.910Z,12.90
2018-08-25T19:26:07.474Z,12.80
2018-08-25T19:28:35.772Z,12.70
2018-08-25T19:31:03.337Z,12.60
2018-08-25T19:33:30.865Z,12.60
2018-08-25T19:35:58.431Z,12.50
2018-08-25T19:38:25.975Z,12.50
2018-08-25T19:40:54.348Z,12.40
2018-08-25T19:43:22.849Z,12.40
2018-08-25T19:45:51.376Z,12.30
2018-08-25T19:48:18.910Z,12.30
2018-08-25T19:50:46.469Z,12.30
2018-08-25T19:53:14.044Z,12.20
2018-08-25T19:55:41.589Z,12.20
2018-08-25T19:58:11.098Z,12.10
2018-08-25T20:00:38.639Z,12.10
2018-08-25T20:03:06.211Z,12.10
2018-08-25T20:05:33.855Z,12.10
2018-08-25T20:08:01.340Z,12.00
2018-08-25T20:10:28.908Z,12.00
2018-08-25T20:12:56.465Z,11.90
2018-08-25T20:15:24.047Z,11.80
2018-08-25T20:17:51.586Z,11.80
2018-08-25T20:20:19.134Z,11.70
2018-08-25T20:22:46.689Z,11.70
2018-08-25T20:25:14.262Z,11.70
2018-08-25T20:27:41.837Z,11.70
2018-08-25T20:30:10.208Z,11.60
2018-08-25T20:32:37.773Z,11.60
2018-08-25T20:35:05.338Z,11.50
2018-08-25T20:37:33.869Z,11.50
2018-08-25T20:40:03.404Z,11.60
2018-08-25T20:42:31.020Z,11.50
2018-08-25T20:44:58.549Z,11.60
2018-08-25T20:47:26.123Z,11.60
2018-08-25T20:49:53.781Z,11.60
2018-08-25T20:52:21.323Z,11.60
2018-08-25T20:54:48.888Z,11.50
2018-08-25T20:57:17.429Z,11.50
2018-08-25T20:59:45.775Z,11.50
2018-08-25T21:02:13.322Z,11.50
2018-08-25T21:04:40.853Z,11.50
2018-08-25T21:07:08.419Z,11.50
2018-08-25T21:09:35.948Z,11.50
2018-08-25T21:12:04.269Z,11.30
2018-08-25T21:14:31.841Z,11.30
2018-08-25T21:16:59.369Z,11.30
2018-08-25T21:19:26.930Z,11.30
2018-08-25T21:21:54.493Z,11.20
2018-08-25T21:24:22.073Z,11.20
2018-08-25T21:26:49.608Z,11.20
2018-08-25T21:29:17.153Z,11.10
2018-08-25T21:31:44.734Z,11.00
2018-08-25T21:34:12.260Z,11.00
2018-08-25T21:36:39.829Z,10.90
2018-08-25T21:39:07.386Z,10.80
2018-08-25T21:41:34.917Z,10.80
2018-08-25T21:44:04.473Z,10.70
2018-08-25T21:46:32.041Z,10.70
2018-08-25T21:48:59.613Z,10.70
2018-08-25T21:51:28.101Z,10.60
2018-08-25T21:53:55.638Z,10.60
2018-08-25T21:56:23.209Z,10.60
2018-08-25T21:58:50.738Z,10.50
2018-08-25T22:01:18.324Z,10.40
2018-08-25T22:03:46.658Z,10.30
2018-08-25T22:06:14.191Z,10.30
2018-08-25T22:08:41.865Z,10.30
2018-08-25T22:11:11.379Z,10.20
2018-08-25T22:13:38.937Z,10.20
2018-08-25T22:16:06.480Z,10.20
2018-08-25T22:18:34.019Z,10.20
2018-08-25T22:21:03.538Z,10.20
2018-08-25T22:23:31.075Z,10.10
2018-08-25T22:25:59.372Z,10.00
2018-08-25T22:28:26.937Z,9.90
2018-08-25T22:30:54.473Z,10.00
2018-08-25T22:33:22.029Z,10.00
2018-08-25T22:35:49.585Z,10.00
2018-08-25T22:38:17.151Z,10.00
2018-08-25T22:40:44.681Z,9.90
2018-08-25T22:43:13.001Z,9.90
2018-08-25T22:45:40.522Z,9.90
2018-08-25T22:48:10.016Z,9.90
2018-08-25T22:50:37.546Z,9.80
2018-08-25T22:53:05.105Z,9.80
2018-08-25T22:55:32.631Z,9.80
2018-08-25T22:58:00.193Z,9.80
2018-08-25T23:00:27.720Z,9.80
2018-08-25T23:02:55.278Z,9.90
2018-08-25T23:05:22.866Z,9.90
2018-08-25T23:07:50.394Z,9.90
2018-08-25T23:10:17.960Z,10.00
2018-08-25T23:12:45.497Z,10.00
2018-08-25T23:15:13.057Z,9.90
2018-08-25T23:17:40.594Z,9.80
2018-08-25T23:20:08.869Z,9.70
2018-08-25T23:22:37.161Z,9.50
2018-08-25T23:25:04.720Z,9.50
2018-08-25T23:27:32.273Z,9.40
2018-08-25T23:29:59.833Z,9.40
2018-08-25T23:32:27.361Z,9.50
2018-08-25T23:34:54.916Z,9.40
2018-08-25T23:37:22.538Z,9.40
2018-08-25T23:39:50.065Z,9.30
2018-08-25T23:42:17.637Z,9.30
2018-08-25T23:44:45.190Z,9.30
2018-08-25T23:47:12.723Z,9.40
2018-08-25T23:49:41.046Z,9.30
2018-08-25T23:52:08.597Z,9.30
2018-08-25T23:54:36.170Z,9.30
2018-08-25T23:57:03.725Z,9.30
2018-08-25T23:59:31.280Z,9.20
